Time;durP1;ratioP1;P1;durP2;ratioP2;P2;SDS_P1;SDS_P2;PMS_P1;PMS_P2;Temp;Humidity;BMP_temperature;BMP_pressure;BME280_temperature;BME280_humidity;BME280_pressure;Samples;Min_cycle;Max_cycle;Signal;HPM_P1;HPM_P2
2021/12/21 00:00:00;;;;;;;8.57;3.75;;;0.50;99.90;;;-0.01;83.47;102130.09;5226553;28;20052;-74
2021/12/21 00:02:32;;;;;;;11.52;4.07;;;0.40;99.90;;;-0.01;83.42;102127.53;5226090;28;20152;-75
2021/12/21 00:05:05;;;;;;;10.35;4.45;;;0.40;99.90;;;-0.03;83.47;102134.19;5225400;28;20044;-72
2021/12/21 00:07:37;;;;;;;9.18;3.72;;;0.40;99.90;;;-0.08;83.29;102133.72;5226307;28;20059;-72
2021/12/21 00:10:10;;;;;;;9.65;3.85;;;0.40;99.90;;;-0.10;83.21;102121.53;5225938;28;20056;-75
2021/12/21 00:13:00;;;;;;;7.28;3.95;;;0.40;99.90;;;-0.13;83.55;102127.28;5225998;28;20067;-75
2021/12/21 00:15:48;;;;;;;8.55;3.42;;;0.30;99.90;;;-0.16;83.16;102120.94;5225798;28;20045;-75
2021/12/21 00:18:37;;;;;;;13.68;4.78;;;0.30;99.90;;;-0.19;83.11;102116.41;5226036;28;20413;-75
2021/12/21 00:21:19;;;;;;;11.13;3.33;;;0.30;99.90;;;-0.21;83.13;102122.13;5225740;28;20119;-75
2021/12/21 00:23:57;;;;;;;7.63;3.75;;;0.30;99.90;;;-0.24;83.25;102111.59;5225129;28;20045;-74
2021/12/21 00:26:29;;;;;;;11.65;3.80;;;0.20;99.90;;;-0.27;83.21;102113.06;5222345;28;20136;-74
2021/12/21 00:29:03;;;;;;;10.10;3.78;;;0.20;99.90;;;-0.29;83.20;102117.16;5193202;28;20054;-74
2021/12/21 00:31:38;;;;;;;7.78;3.83;;;0.20;99.90;;;-0.29;83.70;102112.03;5184655;28;20463;-74
2021/12/21 00:34:10;;;;;;;11.30;3.60;;;0.20;99.90;;;-0.28;83.84;102113.81;5183227;28;20042;-74
2021/12/21 00:36:45;;;;;;;9.18;3.78;;;0.20;99.90;;;-0.28;83.75;102113.81;5184119;28;20046;-74
2021/12/21 00:39:17;;;;;;;11.38;4.05;;;0.20;99.90;;;-0.30;83.34;102117.00;5184525;28;20414;-75
2021/12/21 00:41:49;;;;;;;7.95;3.78;;;0.20;99.90;;;-0.33;83.25;102112.50;5184854;28;20496;-75
2021/12/21 00:44:23;;;;;;;8.65;3.33;;;0.10;99.90;;;-0.39;83.29;102111.88;5184176;28;20041;-75
2021/12/21 00:46:55;;;;;;;10.45;3.92;;;0.10;99.90;;;-0.38;83.32;102113.69;5184732;28;20046;-75
2021/12/21 00:49:29;;;;;;;7.32;3.63;;;0.10;99.90;;;-0.39;83.30;102111.88;5184835;28;20054;-76
2021/12/21 00:52:01;;;;;;;10.00;3.72;;;0.10;99.90;;;-0.40;83.48;102109.16;5184820;28;20050;-74
2021/12/21 00:54:33;;;;;;;10.23;3.58;;;0.10;99.90;;;-0.41;83.13;102107.34;5183816;28;20080;-76
2021/12/21 00:57:06;;;;;;;8.32;3.42;;;0.00;99.90;;;-0.43;83.13;102104.63;5184650;28;20056;-76
2021/12/21 00:59:39;;;;;;;10.30;3.35;;;0.00;99.90;;;-0.44;83.79;102113.06;5184464;28;20060;-75
2021/12/21 01:02:12;;;;;;;7.35;3.17;;;0.00;99.90;;;-0.46;83.43;102099.19;5184572;28;20049;-74
2021/12/21 01:04:48;;;;;;;6.78;3.33;;;0.00;99.90;;;-0.48;83.54;102099.81;5184042;28;20517;-74
2021/12/21 01:07:27;;;;;;;10.68;3.67;;;0.00;99.90;;;-0.50;83.72;102099.66;5184297;28;20085;-76
2021/12/21 01:10:30;;;;;;;8.07;2.92;;;0.00;99.90;;;-0.53;83.34;102089.09;5184357;28;20112;-75
2021/12/21 01:13:11;;;;;;;7.10;3.05;;;-0.10;99.90;;;-0.55;83.44;102095.72;5184007;28;20100;-74
2021/12/21 01:18:59;;;;;;;6.63;2.72;;;-0.10;99.90;;;-0.59;83.42;102094.53;5264093;27;20377;-74
2021/12/21 01:21:35;;;;;;;9.90;3.30;;;-0.10;99.90;;;-0.58;83.48;102092.88;5243321;28;20412;-74
2021/12/21 01:24:35;;;;;;;12.50;3.35;;;-0.10;99.90;;;-0.60;83.20;102097.81;5228482;28;20103;-74
2021/12/21 01:27:21;;;;;;;13.82;3.70;;;-0.10;99.90;;;-0.63;83.33;102092.41;5222704;28;20494;-75
2021/12/21 01:30:04;;;;;;;6.07;2.88;;;-0.10;99.90;;;-0.64;83.35;102092.25;5222372;28;20049;-74
2021/12/21 01:35:31;;;;;;;7.22;2.67;;;-0.20;99.90;;;-0.67;83.03;102097.06;5176966;28;20093;-74
2021/12/21 01:38:11;;;;;;;8.43;3.08;;;-0.20;99.90;;;-0.70;83.13;102091.66;5180653;28;20042;-76
2021/12/21 01:40:50;;;;;;;6.22;2.50;;;-0.20;99.90;;;-0.73;82.96;102087.09;5181343;28;20050;-74
2021/12/21 01:43:30;;;;;;;9.00;2.80;;;-0.20;99.90;;;-0.75;83.32;102083.50;5181546;28;20507;-74
2021/12/21 01:51:43;;;;;;;4.68;2.70;;;-0.30;99.90;;;-0.79;83.07;102093.28;5181190;28;20530;-74
2021/12/21 01:54:15;;;;;;;7.28;3.97;;;-0.30;99.90;;;-0.82;82.71;102087.09;5180676;28;20046;-74
2021/12/21 01:56:47;;;;;;;7.13;3.08;;;-0.40;99.90;;;-0.83;82.81;102086.94;5180881;28;20054;-74
2021/12/21 01:59:19;;;;;;;4.35;2.90;;;-0.40;99.90;;;-0.85;82.96;102089.38;5181038;28;20106;-74
2021/12/21 02:01:51;;;;;;;8.82;3.60;;;-0.40;99.90;;;-0.88;82.82;102083.91;5180589;28;20050;-74
2021/12/21 02:04:23;;;;;;;7.03;3.78;;;-0.40;99.90;;;-0.89;82.80;102083.78;5180629;28;20488;-75
2021/12/21 02:06:56;;;;;;;5.85;2.72;;;-0.40;99.90;;;-0.87;83.05;102088.28;5180929;28;20137;-74
2021/12/21 02:09:37;;;;;;;5.38;2.30;;;-0.40;99.90;;;-0.88;82.77;102076.25;5181090;28;20052;-74
2021/12/21 02:12:13;;;;;;;7.72;2.50;;;-0.40;99.90;;;-0.91;83.13;102083.63;5180756;28;20054;-74
2021/12/21 02:14:55;;;;;;;6.43;2.75;;;-0.40;99.90;;;-0.92;83.17;102079.22;5180443;28;20491;-75
2021/12/21 02:18:08;;;;;;;6.72;2.72;;;-0.40;99.90;;;-0.93;83.39;102074.88;5180270;28;20739;-74
2021/12/21 02:20:46;;;;;;;4.47;2.58;;;-0.40;99.90;;;-0.94;83.20;102074.72;5180538;28;20511;-74
2021/12/21 02:23:24;;;;;;;6.50;2.47;;;-0.50;99.90;;;-0.95;83.05;102080.59;5180124;28;20057;-74
2021/12/21 02:29:09;;;;;;;6.20;3.33;;;-0.50;99.90;;;-0.97;83.40;102085.56;5169810;28;20047;-73
2021/12/21 02:31:45;;;;;;;5.82;3.05;;;-0.50;99.90;;;-0.97;83.42;102084.66;5167181;28;20050;-74
2021/12/21 02:34:19;;;;;;;6.90;3.47;;;-0.50;99.90;;;-1.00;83.13;102081.78;5166354;28;20056;-74
2021/12/21 02:36:55;;;;;;;7.45;2.97;;;-0.50;99.90;;;-1.03;82.97;102087.50;5166602;28;20508;-74
2021/12/21 02:39:28;;;;;;;6.07;3.05;;;-0.50;99.90;;;-1.06;83.11;102089.72;5166565;28;20137;-74
2021/12/21 02:42:00;;;;;;;4.88;2.88;;;-0.60;99.90;;;-1.08;82.81;102073.31;5166778;28;20054;-74
2021/12/21 02:44:33;;;;;;;5.10;3.05;;;-0.60;99.90;;;-1.09;83.21;102074.09;5166042;28;20054;-74
2021/12/21 02:47:06;;;;;;;6.40;2.78;;;-0.60;99.90;;;-1.11;83.28;102065.31;5166625;28;20053;-76
2021/12/21 02:49:38;;;;;;;6.00;3.00;;;-0.60;99.90;;;-1.11;83.25;102065.31;5166603;28;20394;-74
2021/12/21 02:52:12;;;;;;;7.45;2.85;;;-0.60;99.90;;;-1.13;83.41;102075.41;5166311;28;20415;-74
2021/12/21 02:54:44;;;;;;;10.77;3.28;;;-0.60;99.90;;;-1.14;83.61;102070.16;5166093;28;20570;-74
2021/12/21 02:57:16;;;;;;;5.78;3.05;;;-0.60;99.90;;;-1.13;83.56;102077.06;5166433;28;20056;-75
2021/12/21 02:59:48;;;;;;;7.07;2.72;;;-0.70;99.90;;;-1.15;83.45;102069.25;5166569;28;20490;-74
2021/12/21 03:02:20;;;;;;;6.43;3.30;;;-0.60;99.90;;;-1.15;83.20;102070.91;5166272;28;20054;-74
2021/12/21 03:04:52;;;;;;;4.35;2.28;;;-0.70;99.90;;;-1.18;83.25;102063.78;5165744;28;20046;-74
2021/12/21 03:08:00;;;;;;;5.55;3.47;;;-0.70;99.90;;;-1.20;83.37;102067.88;5166410;28;20050;-74
2021/12/21 03:10:32;;;;;;;5.40;2.50;;;-0.70;99.90;;;-1.21;83.47;102072.84;5165885;28;20058;-73
2021/12/21 03:15:55;;;;;;;9.88;2.75;;;-0.70;99.90;;;-1.26;82.97;102069.78;5165647;28;20077;-74
2021/12/21 03:18:27;;;;;;;4.38;2.25;;;-0.70;99.90;;;-1.28;83.44;102070.41;5166058;28;20414;-74
2021/12/21 03:20:59;;;;;;;11.93;3.60;;;-0.80;99.90;;;-1.30;83.38;102074.47;5167109;28;20046;-74
2021/12/21 03:23:33;;;;;;;5.32;3.13;;;-0.80;99.90;;;-1.31;82.96;102065.84;5166949;28;20046;-74
2021/12/21 03:26:06;;;;;;;6.45;2.97;;;-0.80;99.90;;;-1.32;83.13;102063.16;5166655;28;20050;-73
2021/12/21 03:28:38;;;;;;;4.60;2.72;;;-0.80;99.90;;;-1.33;83.35;102061.34;5166579;28;20046;-74
2021/12/21 03:31:11;;;;;;;5.45;2.60;;;-0.80;99.90;;;-1.34;83.39;102072.34;5166011;28;20050;-74
2021/12/21 03:33:44;;;;;;;6.45;3.13;;;-0.80;99.90;;;-1.33;83.41;102061.34;5165600;28;20145;-73
2021/12/21 03:36:17;;;;;;;6.60;2.58;;;-0.80;99.90;;;-1.32;83.36;102068.28;5165370;28;20050;-74
2021/12/21 03:38:57;;;;;;;5.65;3.22;;;-0.80;99.90;;;-1.34;83.03;102065.56;5165889;28;20053;-74
2021/12/21 03:41:29;;;;;;;7.20;3.40;;;-0.80;99.90;;;-1.34;83.10;102064.66;5164586;28;20081;-74
2021/12/21 03:44:02;;;;;;;8.00;2.88;;;-0.80;99.90;;;-1.37;82.90;102055.94;5165139;28;20050;-74
2021/12/21 03:46:36;;;;;;;8.05;3.10;;;-0.90;99.90;;;-1.39;83.09;102053.94;5165731;28;20141;-74
2021/12/21 03:49:33;;;;;;;6.18;2.75;;;-0.90;99.90;;;-1.40;83.10;102054.69;5165404;28;20058;-75
2021/12/21 03:52:03;;;;;;;4.65;2.42;;;-0.90;99.90;;;-1.40;83.20;102047.94;5165208;28;20432;-74
2021/12/21 03:54:38;;;;;;;7.70;3.88;;;-0.90;99.90;;;-1.39;83.02;102047.19;5164986;28;20057;-74
2021/12/21 03:57:11;;;;;;;6.25;2.55;;;-0.90;99.90;;;-1.39;83.09;102056.50;5165321;28;20431;-74
2021/12/21 03:59:44;;;;;;;6.88;3.70;;;-0.90;99.90;;;-1.42;83.19;102056.22;5165139;28;20046;-73
2021/12/21 04:02:19;;;;;;;5.15;2.70;;;-0.90;99.90;;;-1.42;82.98;102062.22;5165036;28;20141;-73
2021/12/21 04:04:53;;;;;;;7.88;2.92;;;-0.90;99.90;;;-1.45;83.29;102046.53;5164435;28;20054;-75
2021/12/21 04:07:25;;;;;;;6.32;2.40;;;-0.90;99.90;;;-1.47;83.18;102047.16;5165366;28;20057;-74
2021/12/21 04:09:59;;;;;;;6.28;3.17;;;-1.00;99.90;;;-1.48;83.18;102045.34;5165026;28;20514;-75
2021/12/21 04:12:31;;;;;;;5.80;3.28;;;-0.90;99.90;;;-1.49;82.94;102047.00;5164826;28;20051;-74
2021/12/21 04:15:06;;;;;;;6.75;3.10;;;-1.00;99.90;;;-1.51;83.08;102056.16;5164301;28;20061;-75
2021/12/21 04:17:38;;;;;;;5.40;2.70;;;-1.00;99.90;;;-1.52;82.80;102048.31;5164659;28;20154;-74
2021/12/21 04:20:11;;;;;;;6.47;2.85;;;-1.00;99.90;;;-1.53;83.04;102057.66;5164984;28;20058;-74
2021/12/21 04:22:43;;;;;;;7.63;3.50;;;-1.00;99.90;;;-1.55;82.95;102043.81;5164598;28;20050;-73
2021/12/21 04:25:17;;;;;;;8.82;3.30;;;-1.00;99.90;;;-1.54;83.00;102047.28;5164337;28;20046;-74
2021/12/21 04:27:49;;;;;;;9.02;3.15;;;-1.00;99.90;;;-1.57;83.07;102045.28;5164659;28;20054;-74
2021/12/21 04:30:21;;;;;;;7.28;3.03;;;-1.10;99.90;;;-1.59;82.92;102051.91;5164644;28;20050;-73
2021/12/21 04:32:53;;;;;;;7.45;2.72;;;-1.10;99.90;;;-1.58;83.18;102053.72;5164717;28;20046;-74
2021/12/21 04:35:25;;;;;;;4.72;3.25;;;-1.10;99.90;;;-1.60;83.04;102054.31;5164201;28;20057;-74
2021/12/21 04:38:00;;;;;;;7.53;4.10;;;-1.10;99.90;;;-1.61;82.95;102053.41;5164440;28;20130;-74
2021/12/21 04:40:41;;;;;;;6.25;2.95;;;-1.10;99.90;;;-1.62;82.98;102053.25;5164883;28;20108;-74
2021/12/21 04:43:13;;;;;;;5.25;3.10;;;-1.10;99.90;;;-1.63;83.21;102052.34;5164268;28;20137;-76
2021/12/21 04:45:45;;;;;;;8.30;2.90;;;-1.10;99.90;;;-1.64;83.27;102058.19;5164055;28;20054;-76
2021/12/21 04:48:17;;;;;;;5.32;2.85;;;-1.10;99.90;;;-1.67;83.31;102055.34;5164556;28;20043;-74
2021/12/21 04:50:50;;;;;;;6.43;2.85;;;-1.20;99.90;;;-1.67;83.34;102053.69;5164282;28;20046;-74
2021/12/21 04:53:22;;;;;;;6.53;2.95;;;-1.20;99.90;;;-1.69;83.27;102044.06;5305454;23;20052;-67
2021/12/21 04:55:56;;;;;;;5.90;2.60;;;-1.10;99.90;;;-1.69;83.12;102046.63;5143911;28;20073;-67
2021/12/21 04:58:28;;;;;;;4.80;3.00;;;-1.20;99.90;;;-1.72;82.98;102048.84;5144297;28;20069;-67
2021/12/21 05:01:00;;;;;;;7.45;3.13;;;-1.20;99.90;;;-1.74;82.89;102045.22;5144380;28;20054;-68
2021/12/21 05:03:32;;;;;;;5.72;2.92;;;-1.20;99.90;;;-1.76;82.83;102044.13;5153370;28;20138;-68
2021/12/21 05:06:04;;;;;;;7.75;2.50;;;-1.20;99.90;;;-1.78;83.08;102040.53;5164243;28;20054;-68
2021/12/21 05:08:38;;;;;;;9.20;3.88;;;-1.30;99.90;;;-1.80;82.92;102039.47;5164332;28;20046;-67
2021/12/21 05:11:15;;;;;;;5.60;2.75;;;-1.30;99.90;;;-1.81;83.11;102042.78;5163993;28;20086;-68
2021/12/21 05:13:47;;;;;;;7.32;3.40;;;-1.30;99.90;;;-1.83;83.24;102037.50;5164261;28;20054;-67
2021/12/21 05:16:19;;;;;;;10.48;3.70;;;-1.30;99.90;;;-1.82;83.09;102040.97;5164019;28;20053;-68
2021/12/21 05:18:51;;;;;;;6.82;2.72;;;-1.30;99.90;;;-1.82;83.18;102028.19;5163866;28;20057;-68
2021/12/21 05:21:23;;;;;;;6.32;2.63;;;-1.30;99.90;;;-1.80;83.46;102030.16;5164308;28;20060;-67
2021/12/21 05:23:55;;;;;;;7.30;3.40;;;-1.30;99.90;;;-1.78;83.43;102022.63;5163742;28;20057;-68
2021/12/21 05:26:28;;;;;;;5.65;2.78;;;-1.30;99.90;;;-1.78;83.33;102027.75;5164192;28;20419;-68
2021/12/21 05:29:00;;;;;;;5.10;2.22;;;-1.30;99.90;;;-1.79;83.13;102031.06;5164557;28;20046;-68
2021/12/21 05:31:33;;;;;;;5.80;2.83;;;-1.30;99.90;;;-1.82;82.91;102035.88;5164035;28;20046;-67
2021/12/21 05:34:05;;;;;;;6.03;3.65;;;-1.30;99.90;;;-1.85;83.25;102030.41;5163951;28;20043;-68
2021/12/21 05:36:37;;;;;;;6.80;2.63;;;-1.30;99.90;;;-1.86;83.18;102023.50;5164113;28;20051;-68
2021/12/21 05:39:16;;;;;;;6.25;2.78;;;-1.40;99.90;;;-1.88;83.22;102036.13;5163956;28;20047;-67
2021/12/21 05:41:51;;;;;;;6.82;2.88;;;-1.40;99.90;;;-1.89;83.42;102033.38;5164126;28;20479;-68
2021/12/21 05:44:26;;;;;;;6.43;3.00;;;-1.40;99.90;;;-1.90;83.35;102029.94;5163980;28;20054;-68
2021/12/21 05:46:58;;;;;;;6.28;3.05;;;-1.40;99.90;;;-1.91;83.23;102028.13;5163897;28;20521;-67
2021/12/21 05:49:33;;;;;;;7.47;3.08;;;-1.40;99.90;;;-1.93;83.27;102035.66;5163584;28;20042;-67
2021/12/21 05:52:06;;;;;;;9.23;3.70;;;-1.40;99.90;;;-1.92;83.32;102028.88;5163639;28;20086;-68
2021/12/21 05:54:38;;;;;;;7.40;3.08;;;-1.40;99.90;;;-1.94;83.31;102028.72;5163502;28;20054;-68
2021/12/21 05:57:12;;;;;;;7.32;3.40;;;-1.40;99.90;;;-1.94;83.07;102036.41;5163960;28;20057;-67
2021/12/21 05:59:44;;;;;;;12.05;4.03;;;-1.40;99.90;;;-1.94;83.25;102036.41;5163799;28;20399;-68
2021/12/21 06:02:17;;;;;;;7.22;4.05;;;-1.40;99.90;;;-1.96;83.16;102037.91;5163725;28;20487;-67
2021/12/21 06:04:49;;;;;;;8.95;3.38;;;-1.40;99.90;;;-2.00;82.95;102040.88;5166141;28;20046;-67
2021/12/21 06:07:20;;;;;;;7.65;3.33;;;-1.40;99.90;;;-2.00;83.00;102045.97;5167659;28;20056;-67
2021/12/21 06:09:52;;;;;;;8.38;4.28;;;-1.50;99.90;;;-2.02;82.79;102047.47;5167300;28;20046;-67
2021/12/21 06:12:41;;;;;;;8.00;3.33;;;-1.50;99.90;;;-2.02;82.99;102047.47;5167455;28;20057;-67
2021/12/21 06:15:26;;;;;;;6.68;3.17;;;-1.50;99.90;;;-2.05;82.87;102042.03;5167581;28;20133;-67
2021/12/21 06:24:33;;;;;;;6.53;3.58;;;-1.50;99.90;;;-2.08;82.85;102051.03;5167059;28;20053;-67
2021/12/21 06:26:47;;;;;;;6.95;3.72;;;-1.50;99.90;;;-2.07;82.87;102052.84;5166888;28;20495;-68
2021/12/21 06:29:21;;;;;;;8.38;3.40;;;-1.50;99.90;;;-2.07;83.00;102053.75;5166996;28;20132;-68
2021/12/21 06:31:54;;;;;;;5.60;2.80;;;-1.50;99.90;;;-2.07;82.90;102047.75;5167102;28;20077;-67
2021/12/21 06:34:26;;;;;;;9.45;4.10;;;-1.50;99.90;;;-2.08;82.90;102046.84;5166752;28;20085;-68
2021/12/21 06:36:59;;;;;;;7.85;2.95;;;-1.50;99.90;;;-2.11;82.83;102046.50;5167331;28;20399;-68
2021/12/21 06:39:33;;;;;;;8.88;2.63;;;-1.60;99.90;;;-2.12;82.79;102038.69;5166961;28;20057;-67
2021/12/21 06:42:06;;;;;;;9.27;3.13;;;-1.60;99.90;;;-2.14;83.04;102043.63;5166777;28;20065;-67
2021/12/21 06:44:43;;;;;;;8.88;2.65;;;-1.60;99.90;;;-2.15;82.78;102048.56;5166867;28;20046;-67
2021/12/21 06:52:57;;;;;;;9.15;3.38;;;-1.60;99.90;;;-2.18;82.72;102056.81;5166980;28;20403;-67
2021/12/21 06:55:29;;;;;;;8.43;3.95;;;-1.60;99.90;;;-2.19;82.77;102062.69;5166345;28;20052;-67
2021/12/21 06:58:01;;;;;;;8.05;3.50;;;-1.70;99.90;;;-2.20;82.85;102056.66;5166629;28;20054;-68
2021/12/21 07:00:36;;;;;;;7.75;3.85;;;-1.60;99.90;;;-2.20;82.75;102054.13;5166284;28;20058;-69
2021/12/21 07:03:08;;;;;;;7.90;3.08;;;-1.70;99.90;;;-2.20;82.80;102055.75;5166381;28;20443;-70
2021/12/21 07:05:41;;;;;;;5.50;3.03;;;-1.70;99.90;;;-2.19;82.99;102062.69;5165979;28;20050;-69
2021/12/21 07:08:17;;;;;;;7.03;3.17;;;-1.70;99.90;;;-2.20;82.92;102060.88;5166362;28;20506;-69
2021/12/21 07:10:55;;;;;;;10.13;2.97;;;-1.70;99.90;;;-2.19;83.02;102062.69;5165916;28;20488;-69
2021/12/21 07:19:09;;;;;;;5.95;2.90;;;-1.70;99.90;;;-2.22;82.84;102064.88;5166210;28;20057;-69
2021/12/21 07:21:41;;;;;;;5.45;2.90;;;-1.70;99.90;;;-2.23;82.86;102068.19;5166042;28;20141;-69
2021/12/21 07:24:13;;;;;;;9.25;3.65;;;-1.70;99.90;;;-2.26;82.95;102060.22;5165608;28;20054;-69
2021/12/21 07:26:46;;;;;;;6.95;3.53;;;-1.70;99.90;;;-2.26;83.19;102062.78;5165693;28;20052;-69
2021/12/21 07:29:18;;;;;;;10.65;4.32;;;-1.70;99.90;;;-2.25;83.26;102062.94;5165545;28;20137;-69
2021/12/21 07:31:52;;;;;;;7.82;4.30;;;-1.80;99.90;;;-2.25;83.18;102064.59;5165745;28;20053;-69
2021/12/21 07:34:24;;;;;;;7.72;3.70;;;-1.70;99.90;;;-2.25;83.10;102075.69;5165162;28;20496;-69
2021/12/21 07:36:56;;;;;;;8.23;3.65;;;-1.70;99.90;;;-2.25;83.17;102077.34;5165761;28;20046;-69
2021/12/21 07:39:28;;;;;;;8.60;3.50;;;-1.70;99.90;;;-2.24;83.39;102074.06;5165643;28;20046;-71
2021/12/21 07:42:00;;;;;;;6.65;3.70;;;-1.70;99.90;;;-2.25;83.16;102083.38;5165478;28;20050;-70
2021/12/21 07:44:32;;;;;;;7.70;3.40;;;-1.80;99.90;;;-2.25;83.25;102082.47;5165154;28;20418;-70
2021/12/21 07:47:06;;;;;;;7.22;4.60;;;-1.70;99.90;;;-2.26;83.26;102085.78;5165358;28;20069;-70
2021/12/21 07:49:38;;;;;;;7.88;3.85;;;-1.70;99.90;;;-2.26;83.25;102089.22;5165256;28;20133;-70
2021/12/21 07:52:12;;;;;;;9.80;4.00;;;-1.70;99.90;;;-2.24;83.29;102092.84;5165247;28;20072;-70
2021/12/21 07:54:45;;;;;;;9.30;4.00;;;-1.70;99.90;;;-2.24;83.06;102091.94;5164558;28;20050;-70
2021/12/21 07:57:17;;;;;;;10.40;3.60;;;-1.70;99.90;;;-2.22;83.12;102095.53;5165255;28;20050;-70
2021/12/21 07:59:50;;;;;;;10.57;3.80;;;-1.70;99.90;;;-2.23;83.14;102102.31;5164832;28;20055;-70
2021/12/21 08:02:26;;;;;;;11.43;3.30;;;-1.70;99.90;;;-2.23;83.17;102107.41;5165336;28;20053;-69
2021/12/21 08:04:59;;;;;;;7.10;3.08;;;-1.70;99.90;;;-2.21;83.06;102097.38;5164493;28;20051;-69
2021/12/21 08:07:35;;;;;;;6.88;3.22;;;-1.70;99.90;;;-2.18;83.25;102097.69;5164994;28;20046;-70
2021/12/21 08:10:20;;;;;;;11.20;2.90;;;-1.70;99.90;;;-2.15;83.20;102104.75;5165047;28;20397;-70
2021/12/21 08:12:53;;;;;;;7.10;3.60;;;-1.70;99.90;;;-2.15;83.44;102095.47;5164941;28;20053;-70
2021/12/21 08:15:25;;;;;;;12.15;3.95;;;-1.60;99.90;;;-2.11;83.38;102101.81;5164459;28;20085;-70
2021/12/21 08:17:59;;;;;;;15.43;4.43;;;-1.60;99.90;;;-2.06;83.64;102106.66;5164882;28;20316;-70
2021/12/21 08:20:31;;;;;;;6.38;3.40;;;-1.60;99.90;;;-2.02;83.64;102102.75;5164813;28;20056;-70
2021/12/21 08:23:05;;;;;;;8.80;3.63;;;-1.50;99.90;;;-1.82;87.71;102097.22;5164893;28;20499;-66
2021/12/21 08:25:38;;;;;;;10.48;3.55;;;-1.40;99.90;;;-1.69;87.00;102097.75;5164331;28;20057;-66
2021/12/21 08:28:10;;;;;;;8.32;3.00;;;-1.20;99.90;;;-1.68;85.45;102097.91;5163898;28;20137;-66
2021/12/21 08:30:43;;;;;;;6.95;3.40;;;-1.20;99.90;;;-1.66;84.95;102095.50;5163122;28;20515;-66
2021/12/21 08:33:17;;;;;;;9.50;2.85;;;-1.10;99.90;;;-1.67;84.18;102094.59;5163696;28;20054;-67
2021/12/21 08:35:50;;;;;;;8.10;5.10;;;-1.10;99.90;;;-1.65;83.86;102097.31;5163966;28;20069;-67
2021/12/21 08:38:22;;;;;;;7.68;3.85;;;-1.10;99.90;;;-1.60;83.90;102096.13;5164525;28;20046;-67
2021/12/21 08:40:57;;;;;;;6.78;2.95;;;-1.10;99.90;;;-1.57;83.74;102091.31;5164616;28;20174;-68
2021/12/21 08:43:31;;;;;;;5.22;2.95;;;-1.00;99.90;;;-1.53;83.94;102087.44;5164339;28;20054;-67
2021/12/21 08:46:04;;;;;;;6.25;2.83;;;-1.00;99.90;;;-1.53;83.70;102090.91;5164024;28;20455;-68
2021/12/21 08:48:37;;;;;;;6.68;2.50;;;-1.00;99.90;;;-1.51;83.66;102081.72;5164142;28;20050;-67
2021/12/21 08:51:09;;;;;;;6.07;2.38;;;-1.00;99.90;;;-1.48;83.58;102089.72;5164276;28;20335;-67
2021/12/21 08:53:42;;;;;;;6.70;2.30;;;-1.00;99.90;;;-1.43;83.65;102092.78;5163758;28;20073;-67
2021/12/21 08:56:16;;;;;;;4.25;2.70;;;-1.00;99.90;;;-1.39;83.79;102087.19;5163898;28;20050;-67
2021/12/21 08:58:48;;;;;;;7.88;2.97;;;-0.90;99.90;;;-1.33;83.98;102092.94;5163879;28;20050;-67
2021/12/21 09:01:20;;;;;;;5.93;2.40;;;-0.90;99.90;;;-1.27;84.03;102088.47;5164203;28;20400;-67
2021/12/21 09:03:54;;;;;;;5.65;2.38;;;-0.80;99.90;;;-1.21;84.19;102083.06;5163722;28;20050;-67
2021/12/21 09:06:26;;;;;;;5.90;2.67;;;-0.80;99.90;;;-1.17;83.81;102085.22;5164191;28;20055;-67
2021/12/21 09:08:58;;;;;;;7.13;3.35;;;-0.70;99.90;;;-1.12;83.99;102086.56;5163878;28;20050;-67
2021/12/21 09:11:30;;;;;;;7.65;3.88;;;-0.70;99.90;;;-1.11;83.89;102085.78;5163634;28;20051;-67
2021/12/21 09:14:02;;;;;;;7.20;3.40;;;-0.60;99.90;;;-1.05;84.13;102081.31;5163373;28;20050;-67
2021/12/21 09:16:34;;;;;;;7.97;3.38;;;-0.60;99.90;;;-0.72;89.79;102091.47;5164116;28;20050;-67
2021/12/21 09:19:08;;;;;;;11.07;2.95;;;-0.40;99.90;;;-0.57;88.75;102081.88;5164009;28;20126;-67
2021/12/21 09:21:39;;;;;;;7.15;3.28;;;-0.20;99.90;;;-0.57;86.55;102087.00;5163935;28;20356;-67
2021/12/21 09:24:13;;;;;;;10.02;3.03;;;-0.10;99.90;;;-0.58;85.54;102091.22;5163048;28;20054;-67
2021/12/21 09:26:45;;;;;;;7.80;3.58;;;-0.10;99.90;;;-0.59;85.08;102091.03;5163737;28;20065;-67
2021/12/21 09:29:17;;;;;;;7.55;3.75;;;-0.10;99.90;;;-0.60;84.45;102095.25;5163805;28;20049;-67
2021/12/21 09:31:49;;;;;;;7.13;3.28;;;-0.10;99.90;;;-0.58;84.66;102090.31;5164111;28;20400;-67
2021/12/21 09:34:22;;;;;;;7.40;3.63;;;-0.10;99.90;;;-0.55;84.34;102088.94;5162754;28;20050;-67
2021/12/21 09:36:54;;;;;;;6.38;3.03;;;-0.10;99.90;;;-0.52;83.96;102088.38;5163655;28;20117;-67
2021/12/21 09:39:26;;;;;;;10.85;4.57;;;-0.10;99.90;;;-0.52;83.50;102090.94;5165858;28;20097;-67
2021/12/21 09:41:59;;;;;;;9.82;4.03;;;0.00;99.90;;;-0.49;83.38;102088.66;5167611;28;20061;-67
2021/12/21 09:44:31;;;;;;;7.95;3.38;;;0.00;99.90;;;-0.46;83.27;102099.19;5167676;28;20047;-67
2021/12/21 09:47:06;;;;;;;6.68;3.33;;;0.00;99.90;;;-0.41;82.99;102092.88;5167775;28;20064;-67
2021/12/21 09:49:40;;;;;;;8.77;4.45;;;0.10;99.90;;;-0.36;83.23;102101.94;5167756;28;20047;-67
2021/12/21 09:52:18;;;;;;;9.18;4.30;;;0.10;99.90;;;-0.32;83.38;102104.03;5167731;28;20137;-67
2021/12/21 09:54:51;;;;;;;6.85;3.53;;;0.10;99.90;;;-0.25;83.38;102099.53;5167065;28;20050;-67
2021/12/21 09:57:23;;;;;;;11.30;3.88;;;0.10;99.90;;;-0.09;83.68;102092.56;5167690;28;20056;-67
2021/12/21 09:59:56;;;;;;;9.23;4.50;;;0.20;99.90;;;-0.02;83.82;102090.75;5167628;28;20054;-67
2021/12/21 10:02:29;;;;;;;8.57;3.83;;;0.30;99.90;;;0.08;83.40;102091.66;5167467;28;20056;-67
2021/12/21 10:05:07;;;;;;;11.73;3.78;;;0.40;99.90;;;0.18;83.14;102084.09;5167040;28;20050;-67
2021/12/21 10:07:39;;;;;;;7.80;3.88;;;0.40;99.90;;;0.31;83.06;102097.34;5167370;28;20488;-67
2021/12/21 10:10:15;;;;;;;8.13;4.25;;;0.60;99.90;;;0.45;82.95;102088.38;5167288;28;20046;-67
2021/12/21 10:12:47;;;;;;;6.35;3.30;;;0.60;99.90;;;0.57;82.95;102083.53;5167273;28;20411;-68
2021/12/21 10:15:22;;;;;;;7.60;3.40;;;0.70;99.90;;;0.67;82.28;102079.44;5143753;28;20050;-68
2021/12/21 10:17:59;;;;;;;6.45;3.75;;;0.80;99.90;;;0.81;82.01;102079.06;5167620;28;20075;-68
2021/12/21 10:20:36;;;;;;;10.23;3.58;;;0.90;99.90;;;1.03;82.22;102088.75;5147272;28;20047;-67
2021/12/21 10:23:13;;;;;;;5.55;2.92;;;1.10;99.90;;;1.25;81.95;102089.09;5147145;28;20385;-68
2021/12/21 10:25:49;;;;;;;6.30;2.85;;;1.30;99.90;;;1.42;81.44;102082.94;5146401;28;20042;-67
2021/12/21 10:28:35;;;;;;;10.10;3.45;;;1.50;99.90;;;1.57;80.54;102079.22;5146954;28;20385;-68
2021/12/21 10:31:10;;;;;;;5.82;2.92;;;1.70;99.90;;;1.71;79.44;102078.78;5147142;28;20053;-67
2021/12/21 10:33:46;;;;;;;5.20;2.97;;;1.80;99.90;;;1.87;79.22;102068.19;5146960;28;20050;-68
2021/12/21 10:36:20;;;;;;;9.25;2.88;;;1.90;99.90;;;1.99;77.97;102083.81;5147131;28;20055;-68
2021/12/21 10:38:56;;;;;;;6.53;2.72;;;2.00;99.90;;;2.15;77.46;102072.47;5146558;28;20053;-68
2021/12/21 10:41:33;;;;;;;9.50;3.17;;;2.20;99.90;;;2.34;76.77;102062.09;5147091;28;20157;-68
2021/12/21 10:44:08;;;;;;;6.82;3.08;;;2.30;99.90;;;2.49;75.96;102067.72;5146196;28;20484;-67
2021/12/21 10:46:42;;;;;;;;;;;2.50;99.90;;;2.64;75.43;102056.16;5147224;28;20057;-68
2021/12/21 10:49:17;;;;;;;5.05;2.45;;;2.60;99.90;;;2.76;73.96;102064.06;5146049;28;19929;-67
2021/12/21 10:51:55;;;;;;;;;;;2.70;99.90;;;2.81;72.50;102061.88;5146872;28;20267;-68
2021/12/21 10:54:30;;;;;;;5.55;2.40;;;2.80;99.90;;;2.84;71.38;102060.44;5241848;23;19926;-70
2021/12/21 10:57:05;;;;;;;5.43;2.47;;;3.00;99.90;;;2.99;71.42;102056.59;5127330;28;20110;-70
2021/12/21 10:59:41;;;;;;;7.28;2.47;;;3.00;99.90;;;3.13;70.69;102052.63;5126799;28;20047;-71
2021/12/21 11:02:18;;;;;;;8.38;2.65;;;3.10;99.90;;;3.28;69.60;102053.00;5127157;28;20507;-70
2021/12/21 11:04:57;;;;;;;7.82;2.90;;;3.30;99.90;;;3.34;69.13;102040.66;5127174;28;20128;-71
2021/12/21 11:07:37;;;;;;;5.72;2.35;;;3.40;99.90;;;3.45;69.19;102044.09;5126743;28;20106;-70
2021/12/21 11:10:15;;;;;;;6.65;2.47;;;3.50;99.90;;;3.57;69.07;102034.78;5126798;28;20049;-69
2021/12/21 11:12:50;;;;;;;8.30;2.53;;;3.60;99.90;;;3.64;68.92;102028.47;5127003;28;20062;-70
2021/12/21 11:15:28;;;;;;;;;;;3.70;99.90;;;3.68;68.55;102026.28;5127163;28;20051;-70
2021/12/21 11:18:05;;;;;;;7.28;2.55;;;3.70;99.90;;;3.79;68.16;102022.00;5126579;28;19929;-70
2021/12/21 11:20:40;;;;;;;4.65;2.40;;;3.80;99.90;;;3.88;67.73;102015.00;5126402;28;20111;-70